sensor_id;sensor_type;location;lat;lon;timestamp;P1;durP1;ratioP1;P2;durP2;ratioP2
545;SDS011;259;53.304;9.816;2023-02-28T00:00:29;1.00;;;0.90;;
545;SDS011;259;53.304;9.816;2023-02-28T00:02:55;0.90;;;0.90;;
545;SDS011;259;53.304;9.816;2023-02-28T00:05:22;1.10;;;1.00;;
545;SDS011;259;53.304;9.816;2023-02-28T00:07:49;1.33;;;1.20;;
545;SDS011;259;53.304;9.816;2023-02-28T00:10:17;1.20;;;1.10;;
545;SDS011;259;53.304;9.816;2023-02-28T00:12:49;1.40;;;1.13;;
545;SDS011;259;53.304;9.816;2023-02-28T00:15:16;1.00;;;0.87;;
545;SDS011;259;53.304;9.816;2023-02-28T00:17:43;1.10;;;1.00;;
545;SDS011;259;53.304;9.816;2023-02-28T00:20:09;0.70;;;0.70;;
545;SDS011;259;53.304;9.816;2023-02-28T00:22:38;1.03;;;0.90;;
545;SDS011;259;53.304;9.816;2023-02-28T00:25:06;1.10;;;1.00;;
545;SDS011;259;53.304;9.816;2023-02-28T00:27:35;0.80;;;0.67;;
545;SDS011;259;53.304;9.816;2023-02-28T00:30:02;1.20;;;0.90;;
545;SDS011;259;53.304;9.816;2023-02-28T00:32:29;1.10;;;1.00;;
545;SDS011;259;53.304;9.816;2023-02-28T00:34:55;1.37;;;1.17;;
545;SDS011;259;53.304;9.816;2023-02-28T00:37:21;0.90;;;0.80;;
545;SDS011;259;53.304;9.816;2023-02-28T00:39:47;1.10;;;1.00;;
545;SDS011;259;53.304;9.816;2023-02-28T00:42:12;1.13;;;1.03;;
545;SDS011;259;53.304;9.816;2023-02-28T00:44:38;0.77;;;0.73;;
545;SDS011;259;53.304;9.816;2023-02-28T00:47:04;0.70;;;0.70;;
545;SDS011;259;53.304;9.816;2023-02-28T00:49:30;0.80;;;0.80;;
545;SDS011;259;53.304;9.816;2023-02-28T00:51:56;0.93;;;0.93;;
545;SDS011;259;53.304;9.816;2023-02-28T00:54:22;0.83;;;0.83;;
545;SDS011;259;53.304;9.816;2023-02-28T00:56:48;0.83;;;0.83;;
545;SDS011;259;53.304;9.816;2023-02-28T00:59:15;0.80;;;0.63;;
545;SDS011;259;53.304;9.816;2023-02-28T01:01:43;0.90;;;0.80;;
545;SDS011;259;53.304;9.816;2023-02-28T01:04:10;1.00;;;0.80;;
545;SDS011;259;53.304;9.816;2023-02-28T01:06:36;0.90;;;0.80;;
545;SDS011;259;53.304;9.816;2023-02-28T01:09:03;0.83;;;0.83;;
545;SDS011;259;53.304;9.816;2023-02-28T01:11:30;1.00;;;0.90;;
545;SDS011;259;53.304;9.816;2023-02-28T01:13:57;0.90;;;0.90;;
545;SDS011;259;53.304;9.816;2023-02-28T01:16:22;1.07;;;1.07;;
545;SDS011;259;53.304;9.816;2023-02-28T01:18:48;0.97;;;0.80;;
545;SDS011;259;53.304;9.816;2023-02-28T01:21:16;0.80;;;0.80;;
545;SDS011;259;53.304;9.816;2023-02-28T01:23:44;1.03;;;0.93;;
545;SDS011;259;53.304;9.816;2023-02-28T01:26:14;1.47;;;0.80;;
545;SDS011;259;53.304;9.816;2023-02-28T01:28:46;0.73;;;0.73;;
545;SDS011;259;53.304;9.816;2023-02-28T01:31:12;0.97;;;0.90;;
545;SDS011;259;53.304;9.816;2023-02-28T01:33:39;0.83;;;0.77;;
545;SDS011;259;53.304;9.816;2023-02-28T01:36:06;0.90;;;0.90;;
545;SDS011;259;53.304;9.816;2023-02-28T01:38:36;1.00;;;0.90;;
545;SDS011;259;53.304;9.816;2023-02-28T01:41:02;1.20;;;1.10;;
545;SDS011;259;53.304;9.816;2023-02-28T01:43:39;0.90;;;0.73;;
545;SDS011;259;53.304;9.816;2023-02-28T01:46:33;0.80;;;0.80;;
545;SDS011;259;53.304;9.816;2023-02-28T01:49:11;1.10;;;0.80;;
545;SDS011;259;53.304;9.816;2023-02-28T01:51:44;1.00;;;0.90;;
545;SDS011;259;53.304;9.816;2023-02-28T01:54:34;0.93;;;0.93;;
545;SDS011;259;53.304;9.816;2023-02-28T01:57:08;1.13;;;0.90;;
545;SDS011;259;53.304;9.816;2023-02-28T01:59:43;0.80;;;0.80;;
545;SDS011;259;53.304;9.816;2023-02-28T02:02:26;0.70;;;0.60;;
545;SDS011;259;53.304;9.816;2023-02-28T02:07:38;0.90;;;0.90;;
545;SDS011;259;53.304;9.816;2023-02-28T02:18:53;0.80;;;0.80;;
545;SDS011;259;53.304;9.816;2023-02-28T02:27:38;1.00;;;0.90;;
545;SDS011;259;53.304;9.816;2023-02-28T02:30:44;1.07;;;0.93;;
545;SDS011;259;53.304;9.816;2023-02-28T02:36:42;0.70;;;0.70;;
545;SDS011;259;53.304;9.816;2023-02-28T02:45:30;0.60;;;0.60;;
545;SDS011;259;53.304;9.816;2023-02-28T02:48:09;0.80;;;0.80;;
545;SDS011;259;53.304;9.816;2023-02-28T02:50:42;1.00;;;0.90;;
545;SDS011;259;53.304;9.816;2023-02-28T02:53:13;0.90;;;0.80;;
545;SDS011;259;53.304;9.816;2023-02-28T02:55:43;1.00;;;0.90;;
545;SDS011;259;53.304;9.816;2023-02-28T02:58:13;0.97;;;0.97;;
545;SDS011;259;53.304;9.816;2023-02-28T03:00:46;0.97;;;0.97;;
545;SDS011;259;53.304;9.816;2023-02-28T03:03:18;1.23;;;1.13;;
545;SDS011;259;53.304;9.816;2023-02-28T03:05:54;0.70;;;0.70;;
545;SDS011;259;53.304;9.816;2023-02-28T03:08:22;1.20;;;1.10;;
545;SDS011;259;53.304;9.816;2023-02-28T03:10:48;0.93;;;0.83;;
545;SDS011;259;53.304;9.816;2023-02-28T03:18:53;0.60;;;0.57;;
545;SDS011;259;53.304;9.816;2023-02-28T03:21:34;0.93;;;0.83;;
545;SDS011;259;53.304;9.816;2023-02-28T03:24:08;1.03;;;0.90;;
545;SDS011;259;53.304;9.816;2023-02-28T03:27:07;0.80;;;0.77;;
545;SDS011;259;53.304;9.816;2023-02-28T03:29:43;1.30;;;1.20;;
545;SDS011;259;53.304;9.816;2023-02-28T03:33:33;1.00;;;0.97;;
545;SDS011;259;53.304;9.816;2023-02-28T03:35:39;0.83;;;0.80;;
545;SDS011;259;53.304;9.816;2023-02-28T03:38:15;0.90;;;0.80;;
545;SDS011;259;53.304;9.816;2023-02-28T03:41:05;0.90;;;0.80;;
545;SDS011;259;53.304;9.816;2023-02-28T03:43:40;1.63;;;1.03;;
545;SDS011;259;53.304;9.816;2023-02-28T03:46:12;0.80;;;0.80;;
545;SDS011;259;53.304;9.816;2023-02-28T03:48:45;0.80;;;0.80;;
545;SDS011;259;53.304;9.816;2023-02-28T03:51:21;0.70;;;0.70;;
545;SDS011;259;53.304;9.816;2023-02-28T03:53:59;0.80;;;0.80;;
545;SDS011;259;53.304;9.816;2023-02-28T03:56:38;0.90;;;0.80;;
545;SDS011;259;53.304;9.816;2023-02-28T03:59:23;1.03;;;0.97;;
545;SDS011;259;53.304;9.816;2023-02-28T04:01:54;0.80;;;0.80;;
545;SDS011;259;53.304;9.816;2023-02-28T04:04:20;1.10;;;1.03;;
545;SDS011;259;53.304;9.816;2023-02-28T04:06:49;1.03;;;0.67;;
545;SDS011;259;53.304;9.816;2023-02-28T04:09:16;0.70;;;0.70;;
545;SDS011;259;53.304;9.816;2023-02-28T04:11:43;0.87;;;0.87;;
545;SDS011;259;53.304;9.816;2023-02-28T04:14:20;1.17;;;0.93;;
545;SDS011;259;53.304;9.816;2023-02-28T04:16:47;0.83;;;0.80;;
545;SDS011;259;53.304;9.816;2023-02-28T04:19:13;1.03;;;0.90;;
545;SDS011;259;53.304;9.816;2023-02-28T04:24:14;0.80;;;0.67;;
545;SDS011;259;53.304;9.816;2023-02-28T04:26:46;0.83;;;0.80;;
545;SDS011;259;53.304;9.816;2023-02-28T04:29:18;1.20;;;1.00;;
545;SDS011;259;53.304;9.816;2023-02-28T04:31:56;0.83;;;0.83;;
545;SDS011;259;53.304;9.816;2023-02-28T04:34:24;1.20;;;0.90;;
545;SDS011;259;53.304;9.816;2023-02-28T04:36:51;0.80;;;0.80;;
545;SDS011;259;53.304;9.816;2023-02-28T04:39:19;0.80;;;0.60;;
545;SDS011;259;53.304;9.816;2023-02-28T04:41:48;0.90;;;0.80;;
545;SDS011;259;53.304;9.816;2023-02-28T04:44:15;0.80;;;0.70;;
545;SDS011;259;53.304;9.816;2023-02-28T04:46:41;0.90;;;0.83;;
545;SDS011;259;53.304;9.816;2023-02-28T04:49:09;1.30;;;0.90;;
545;SDS011;259;53.304;9.816;2023-02-28T04:51:37;0.80;;;0.80;;
545;SDS011;259;53.304;9.816;2023-02-28T04:54:02;0.83;;;0.83;;
545;SDS011;259;53.304;9.816;2023-02-28T04:56:28;0.80;;;0.80;;
545;SDS011;259;53.304;9.816;2023-02-28T04:58:54;0.60;;;0.60;;
545;SDS011;259;53.304;9.816;2023-02-28T05:01:30;0.70;;;0.70;;
545;SDS011;259;53.304;9.816;2023-02-28T05:03:59;0.70;;;0.67;;
545;SDS011;259;53.304;9.816;2023-02-28T05:06:27;0.83;;;0.70;;
545;SDS011;259;53.304;9.816;2023-02-28T05:08:55;0.67;;;0.67;;
545;SDS011;259;53.304;9.816;2023-02-28T05:11:22;1.07;;;0.97;;
545;SDS011;259;53.304;9.816;2023-02-28T05:13:58;0.70;;;0.70;;
545;SDS011;259;53.304;9.816;2023-02-28T05:16:24;0.70;;;0.70;;
545;SDS011;259;53.304;9.816;2023-02-28T05:18:50;0.70;;;0.70;;
545;SDS011;259;53.304;9.816;2023-02-28T05:23:49;1.00;;;0.90;;
545;SDS011;259;53.304;9.816;2023-02-28T05:26:15;1.00;;;0.80;;
545;SDS011;259;53.304;9.816;2023-02-28T05:28:41;0.70;;;0.70;;
545;SDS011;259;53.304;9.816;2023-02-28T05:31:07;0.90;;;0.90;;
545;SDS011;259;53.304;9.816;2023-02-28T05:33:35;1.07;;;0.70;;
545;SDS011;259;53.304;9.816;2023-02-28T05:36:01;1.20;;;1.10;;
545;SDS011;259;53.304;9.816;2023-02-28T05:38:28;2.20;;;1.10;;
545;SDS011;259;53.304;9.816;2023-02-28T05:40:54;0.70;;;0.70;;
545;SDS011;259;53.304;9.816;2023-02-28T05:43:19;0.80;;;0.80;;
545;SDS011;259;53.304;9.816;2023-02-28T05:45:45;0.90;;;0.90;;
545;SDS011;259;53.304;9.816;2023-02-28T05:48:10;2.20;;;0.83;;
545;SDS011;259;53.304;9.816;2023-02-28T05:50:36;0.80;;;0.80;;
545;SDS011;259;53.304;9.816;2023-02-28T05:53:02;0.70;;;0.60;;
545;SDS011;259;53.304;9.816;2023-02-28T05:55:28;0.70;;;0.60;;
545;SDS011;259;53.304;9.816;2023-02-28T05:57:54;0.80;;;0.80;;
545;SDS011;259;53.304;9.816;2023-02-28T06:00:20;0.60;;;0.60;;
545;SDS011;259;53.304;9.816;2023-02-28T06:02:47;1.33;;;1.23;;
545;SDS011;259;53.304;9.816;2023-02-28T06:05:13;0.80;;;0.70;;
545;SDS011;259;53.304;9.816;2023-02-28T06:07:43;0.90;;;0.60;;
545;SDS011;259;53.304;9.816;2023-02-28T06:10:10;0.83;;;0.83;;
545;SDS011;259;53.304;9.816;2023-02-28T06:12:37;1.17;;;1.07;;
545;SDS011;259;53.304;9.816;2023-02-28T06:15:03;0.77;;;0.67;;
545;SDS011;259;53.304;9.816;2023-02-28T06:17:29;1.87;;;0.60;;
545;SDS011;259;53.304;9.816;2023-02-28T06:19:55;0.60;;;0.60;;
545;SDS011;259;53.304;9.816;2023-02-28T06:22:20;1.17;;;0.70;;
545;SDS011;259;53.304;9.816;2023-02-28T06:24:46;2.23;;;1.20;;
545;SDS011;259;53.304;9.816;2023-02-28T06:27:12;1.97;;;1.00;;
545;SDS011;259;53.304;9.816;2023-02-28T06:29:38;1.20;;;1.07;;
545;SDS011;259;53.304;9.816;2023-02-28T06:32:07;1.00;;;1.00;;
545;SDS011;259;53.304;9.816;2023-02-28T06:34:32;0.60;;;0.60;;
545;SDS011;259;53.304;9.816;2023-02-28T06:37:01;0.80;;;0.73;;
545;SDS011;259;53.304;9.816;2023-02-28T06:39:28;2.20;;;0.90;;
545;SDS011;259;53.304;9.816;2023-02-28T06:41:54;0.90;;;0.73;;
545;SDS011;259;53.304;9.816;2023-02-28T06:44:20;0.80;;;0.70;;
545;SDS011;259;53.304;9.816;2023-02-28T06:46:46;0.70;;;0.60;;
545;SDS011;259;53.304;9.816;2023-02-28T06:49:13;0.97;;;0.97;;
545;SDS011;259;53.304;9.816;2023-02-28T06:51:40;1.00;;;0.77;;
545;SDS011;259;53.304;9.816;2023-02-28T06:54:10;1.67;;;0.80;;
545;SDS011;259;53.304;9.816;2023-02-28T06:56:36;0.87;;;0.87;;
545;SDS011;259;53.304;9.816;2023-02-28T06:59:02;1.43;;;0.80;;
545;SDS011;259;53.304;9.816;2023-02-28T07:01:29;0.67;;;0.67;;
545;SDS011;259;53.304;9.816;2023-02-28T07:03:56;0.90;;;0.90;;
545;SDS011;259;53.304;9.816;2023-02-28T07:06:25;0.87;;;0.63;;
545;SDS011;259;53.304;9.816;2023-02-28T07:08:51;1.30;;;0.70;;
545;SDS011;259;53.304;9.816;2023-02-28T07:11:18;1.00;;;0.83;;
545;SDS011;259;53.304;9.816;2023-02-28T07:13:47;0.93;;;0.70;;
545;SDS011;259;53.304;9.816;2023-02-28T07:16:14;2.77;;;0.60;;
545;SDS011;259;53.304;9.816;2023-02-28T07:18:39;10.87;;;2.43;;
545;SDS011;259;53.304;9.816;2023-02-28T07:21:06;9.90;;;2.70;;
545;SDS011;259;53.304;9.816;2023-02-28T07:23:34;17.40;;;3.20;;
545;SDS011;259;53.304;9.816;2023-02-28T07:26:03;8.03;;;2.47;;
545;SDS011;259;53.304;9.816;2023-02-28T07:28:29;7.30;;;2.10;;
545;SDS011;259;53.304;9.816;2023-02-28T07:30:55;9.00;;;2.47;;
545;SDS011;259;53.304;9.816;2023-02-28T07:33:21;15.47;;;3.10;;
545;SDS011;259;53.304;9.816;2023-02-28T07:35:46;18.60;;;2.83;;
545;SDS011;259;53.304;9.816;2023-02-28T07:38:12;8.53;;;2.30;;
545;SDS011;259;53.304;9.816;2023-02-28T07:40:39;7.73;;;2.53;;
545;SDS011;259;53.304;9.816;2023-02-28T07:43:04;14.37;;;2.80;;
545;SDS011;259;53.304;9.816;2023-02-28T07:45:30;10.83;;;2.87;;
545;SDS011;259;53.304;9.816;2023-02-28T07:47:59;9.93;;;2.03;;
545;SDS011;259;53.304;9.816;2023-02-28T07:50:25;12.60;;;1.77;;
545;SDS011;259;53.304;9.816;2023-02-28T07:52:52;8.57;;;2.30;;
545;SDS011;259;53.304;9.816;2023-02-28T07:55:18;5.63;;;1.73;;
545;SDS011;259;53.304;9.816;2023-02-28T07:57:44;19.47;;;2.77;;
545;SDS011;259;53.304;9.816;2023-02-28T08:00:10;9.50;;;2.87;;
545;SDS011;259;53.304;9.816;2023-02-28T08:02:37;8.10;;;1.60;;
545;SDS011;259;53.304;9.816;2023-02-28T08:05:03;8.43;;;2.00;;
545;SDS011;259;53.304;9.816;2023-02-28T08:07:30;10.80;;;2.10;;
545;SDS011;259;53.304;9.816;2023-02-28T08:09:57;12.70;;;3.07;;
545;SDS011;259;53.304;9.816;2023-02-28T08:12:23;7.40;;;3.47;;
545;SDS011;259;53.304;9.816;2023-02-28T08:14:48;15.20;;;3.70;;
545;SDS011;259;53.304;9.816;2023-02-28T08:17:14;20.47;;;3.30;;
545;SDS011;259;53.304;9.816;2023-02-28T08:19:40;9.13;;;2.33;;
545;SDS011;259;53.304;9.816;2023-02-28T08:22:05;13.30;;;1.97;;
545;SDS011;259;53.304;9.816;2023-02-28T08:24:31;26.70;;;3.83;;
545;SDS011;259;53.304;9.816;2023-02-28T08:26:58;22.37;;;3.20;;
545;SDS011;259;53.304;9.816;2023-02-28T08:29:23;23.17;;;4.43;;
545;SDS011;259;53.304;9.816;2023-02-28T08:31:49;21.60;;;3.90;;
545;SDS011;259;53.304;9.816;2023-02-28T08:34:15;35.57;;;5.10;;
545;SDS011;259;53.304;9.816;2023-02-28T08:36:41;36.43;;;4.80;;
545;SDS011;259;53.304;9.816;2023-02-28T08:39:09;26.33;;;4.93;;
545;SDS011;259;53.304;9.816;2023-02-28T08:41:35;29.50;;;5.43;;
545;SDS011;259;53.304;9.816;2023-02-28T08:44:01;23.60;;;3.90;;
545;SDS011;259;53.304;9.816;2023-02-28T08:46:27;28.63;;;3.60;;
545;SDS011;259;53.304;9.816;2023-02-28T08:48:54;17.77;;;3.43;;
545;SDS011;259;53.304;9.816;2023-02-28T08:51:24;25.67;;;4.80;;
545;SDS011;259;53.304;9.816;2023-02-28T08:53:55;23.30;;;3.80;;
545;SDS011;259;53.304;9.816;2023-02-28T08:56:24;17.97;;;4.17;;
545;SDS011;259;53.304;9.816;2023-02-28T08:58:51;10.33;;;2.47;;
545;SDS011;259;53.304;9.816;2023-02-28T09:01:21;11.73;;;2.63;;
545;SDS011;259;53.304;9.816;2023-02-28T09:03:53;19.43;;;3.30;;
545;SDS011;259;53.304;9.816;2023-02-28T09:06:21;22.97;;;3.90;;
545;SDS011;259;53.304;9.816;2023-02-28T09:08:49;10.97;;;2.20;;
545;SDS011;259;53.304;9.816;2023-02-28T09:11:15;12.37;;;3.43;;
545;SDS011;259;53.304;9.816;2023-02-28T09:13:41;8.87;;;2.73;;
545;SDS011;259;53.304;9.816;2023-02-28T09:16:08;15.97;;;3.37;;
545;SDS011;259;53.304;9.816;2023-02-28T09:18:37;21.63;;;3.63;;
545;SDS011;259;53.304;9.816;2023-02-28T09:21:04;17.60;;;3.43;;
545;SDS011;259;53.304;9.816;2023-02-28T09:23:38;10.53;;;2.87;;
545;SDS011;259;53.304;9.816;2023-02-28T09:26:04;17.23;;;3.07;;
545;SDS011;259;53.304;9.816;2023-02-28T09:28:30;14.63;;;3.87;;
545;SDS011;259;53.304;9.816;2023-02-28T09:30:56;17.97;;;2.83;;
545;SDS011;259;53.304;9.816;2023-02-28T09:33:25;12.00;;;3.00;;
545;SDS011;259;53.304;9.816;2023-02-28T09:35:56;15.43;;;3.03;;
545;SDS011;259;53.304;9.816;2023-02-28T09:38:25;10.27;;;2.90;;
545;SDS011;259;53.304;9.816;2023-02-28T09:40:53;11.40;;;1.93;;
545;SDS011;259;53.304;9.816;2023-02-28T09:43:26;9.53;;;2.67;;
545;SDS011;259;53.304;9.816;2023-02-28T09:48:58;9.87;;;2.40;;
545;SDS011;259;53.304;9.816;2023-02-28T09:54:13;32.90;;;4.80;;
545;SDS011;259;53.304;9.816;2023-02-28T09:56:44;17.80;;;3.13;;
545;SDS011;259;53.304;9.816;2023-02-28T09:59:29;16.97;;;2.80;;
545;SDS011;259;53.304;9.816;2023-02-28T10:02:17;12.57;;;2.20;;
545;SDS011;259;53.304;9.816;2023-02-28T10:05:13;8.87;;;3.03;;
545;SDS011;259;53.304;9.816;2023-02-28T10:07:51;11.10;;;2.50;;
545;SDS011;259;53.304;9.816;2023-02-28T10:10:44;20.63;;;3.40;;
545;SDS011;259;53.304;9.816;2023-02-28T10:13:31;16.03;;;2.60;;
545;SDS011;259;53.304;9.816;2023-02-28T10:16:17;17.07;;;2.90;;
545;SDS011;259;53.304;9.816;2023-02-28T10:18:52;19.20;;;3.20;;
545;SDS011;259;53.304;9.816;2023-02-28T10:21:27;16.30;;;3.50;;
545;SDS011;259;53.304;9.816;2023-02-28T10:24:07;25.97;;;5.23;;
545;SDS011;259;53.304;9.816;2023-02-28T10:27:04;20.23;;;3.70;;
545;SDS011;259;53.304;9.816;2023-02-28T10:29:42;16.17;;;3.90;;
545;SDS011;259;53.304;9.816;2023-02-28T10:32:14;17.13;;;3.23;;
545;SDS011;259;53.304;9.816;2023-02-28T10:37:38;18.33;;;3.43;;
545;SDS011;259;53.304;9.816;2023-02-28T10:40:38;13.63;;;2.47;;
545;SDS011;259;53.304;9.816;2023-02-28T10:43:01;13.67;;;3.37;;
545;SDS011;259;53.304;9.816;2023-02-28T10:45:30;10.63;;;3.13;;
545;SDS011;259;53.304;9.816;2023-02-28T10:55:57;16.53;;;3.80;;
545;SDS011;259;53.304;9.816;2023-02-28T10:58:48;16.37;;;4.00;;
545;SDS011;259;53.304;9.816;2023-02-28T11:04:03;11.13;;;4.10;;
545;SDS011;259;53.304;9.816;2023-02-28T11:07:02;6.47;;;2.60;;
545;SDS011;259;53.304;9.816;2023-02-28T11:09:46;8.33;;;3.37;;
545;SDS011;259;53.304;9.816;2023-02-28T11:12:37;10.67;;;2.30;;
545;SDS011;259;53.304;9.816;2023-02-28T11:15:07;13.00;;;3.00;;
545;SDS011;259;53.304;9.816;2023-02-28T11:17:55;11.77;;;3.40;;
545;SDS011;259;53.304;9.816;2023-02-28T11:20:53;19.27;;;3.47;;
545;SDS011;259;53.304;9.816;2023-02-28T11:23:24;14.50;;;3.13;;
545;SDS011;259;53.304;9.816;2023-02-28T11:25:53;18.20;;;3.67;;
545;SDS011;259;53.304;9.816;2023-02-28T11:31:33;26.07;;;4.97;;
545;SDS011;259;53.304;9.816;2023-02-28T11:33:45;15.60;;;3.40;;
545;SDS011;259;53.304;9.816;2023-02-28T11:36:36;9.80;;;3.07;;
545;SDS011;259;53.304;9.816;2023-02-28T11:39:10;15.80;;;2.73;;
545;SDS011;259;53.304;9.816;2023-02-28T11:44:48;46.97;;;7.47;;
545;SDS011;259;53.304;9.816;2023-02-28T11:53:45;32.23;;;5.53;;
545;SDS011;259;53.304;9.816;2023-02-28T11:56:44;34.57;;;5.33;;
545;SDS011;259;53.304;9.816;2023-02-28T11:59:26;26.60;;;5.67;;
545;SDS011;259;53.304;9.816;2023-02-28T12:02:18;56.93;;;6.30;;
545;SDS011;259;53.304;9.816;2023-02-28T12:10:57;17.63;;;3.73;;
545;SDS011;259;53.304;9.816;2023-02-28T12:16:27;15.73;;;4.33;;
545;SDS011;259;53.304;9.816;2023-02-28T12:20:13;14.53;;;3.10;;
545;SDS011;259;53.304;9.816;2023-02-28T12:22:46;18.13;;;2.93;;
545;SDS011;259;53.304;9.816;2023-02-28T12:28:09;25.50;;;4.20;;
545;SDS011;259;53.304;9.816;2023-02-28T12:30:41;24.00;;;4.03;;
545;SDS011;259;53.304;9.816;2023-02-28T12:33:21;13.17;;;3.20;;
545;SDS011;259;53.304;9.816;2023-02-28T12:35:57;7.93;;;2.77;;
545;SDS011;259;53.304;9.816;2023-02-28T12:43:43;19.43;;;3.67;;
545;SDS011;259;53.304;9.816;2023-02-28T12:46:18;22.03;;;3.93;;
545;SDS011;259;53.304;9.816;2023-02-28T12:48:55;28.00;;;5.03;;
545;SDS011;259;53.304;9.816;2023-02-28T12:51:22;17.70;;;3.23;;
545;SDS011;259;53.304;9.816;2023-02-28T12:59:27;19.33;;;3.93;;
545;SDS011;259;53.304;9.816;2023-02-28T13:02:18;18.80;;;3.97;;
545;SDS011;259;53.304;9.816;2023-02-28T13:13:23;15.83;;;3.37;;
545;SDS011;259;53.304;9.816;2023-02-28T13:18:36;13.57;;;3.07;;
545;SDS011;259;53.304;9.816;2023-02-28T13:21:08;24.83;;;3.70;;
545;SDS011;259;53.304;9.816;2023-02-28T13:26:20;11.40;;;2.43;;
545;SDS011;259;53.304;9.816;2023-02-28T13:28:56;19.43;;;3.30;;
545;SDS011;259;53.304;9.816;2023-02-28T13:31:26;22.73;;;2.90;;
545;SDS011;259;53.304;9.816;2023-02-28T13:36:30;7.57;;;1.80;;
545;SDS011;259;53.304;9.816;2023-02-28T13:38:58;10.37;;;2.30;;
545;SDS011;259;53.304;9.816;2023-02-28T13:44:00;11.27;;;2.33;;
545;SDS011;259;53.304;9.816;2023-02-28T13:49:33;16.37;;;2.40;;
545;SDS011;259;53.304;9.816;2023-02-28T13:52:03;17.13;;;2.63;;
545;SDS011;259;53.304;9.816;2023-02-28T14:03:22;13.10;;;3.30;;
545;SDS011;259;53.304;9.816;2023-02-28T14:11:34;7.00;;;1.97;;
545;SDS011;259;53.304;9.816;2023-02-28T14:14:06;8.37;;;1.97;;
545;SDS011;259;53.304;9.816;2023-02-28T14:16:47;14.10;;;2.20;;
545;SDS011;259;53.304;9.816;2023-02-28T14:19:25;19.37;;;3.20;;
545;SDS011;259;53.304;9.816;2023-02-28T14:27:11;12.33;;;2.47;;
545;SDS011;259;53.304;9.816;2023-02-28T14:37:41;3.57;;;1.77;;
545;SDS011;259;53.304;9.816;2023-02-28T14:40:12;6.70;;;2.10;;
545;SDS011;259;53.304;9.816;2023-02-28T14:42:54;5.70;;;1.43;;
545;SDS011;259;53.304;9.816;2023-02-28T14:45:27;6.13;;;1.40;;
545;SDS011;259;53.304;9.816;2023-02-28T14:47:57;3.93;;;1.07;;
545;SDS011;259;53.304;9.816;2023-02-28T14:50:27;4.67;;;1.17;;
545;SDS011;259;53.304;9.816;2023-02-28T14:52:59;1.23;;;1.10;;
545;SDS011;259;53.304;9.816;2023-02-28T14:55:29;2.50;;;1.10;;
545;SDS011;259;53.304;9.816;2023-02-28T14:57:58;3.37;;;1.00;;
545;SDS011;259;53.304;9.816;2023-02-28T15:00:29;3.50;;;1.00;;
545;SDS011;259;53.304;9.816;2023-02-28T15:02:58;2.80;;;1.00;;
545;SDS011;259;53.304;9.816;2023-02-28T15:05:32;4.30;;;1.00;;
545;SDS011;259;53.304;9.816;2023-02-28T15:10:37;1.57;;;1.00;;
545;SDS011;259;53.304;9.816;2023-02-28T15:13:05;3.30;;;1.23;;
545;SDS011;259;53.304;9.816;2023-02-28T15:15:50;3.67;;;0.90;;
545;SDS011;259;53.304;9.816;2023-02-28T15:18:24;3.10;;;1.33;;
545;SDS011;259;53.304;9.816;2023-02-28T15:21:06;1.90;;;0.83;;
545;SDS011;259;53.304;9.816;2023-02-28T15:23:46;2.53;;;1.27;;
545;SDS011;259;53.304;9.816;2023-02-28T15:26:20;2.23;;;1.10;;
545;SDS011;259;53.304;9.816;2023-02-28T15:28:53;2.40;;;0.97;;
545;SDS011;259;53.304;9.816;2023-02-28T15:31:27;2.67;;;0.97;;
545;SDS011;259;53.304;9.816;2023-02-28T15:33:58;0.60;;;0.60;;
545;SDS011;259;53.304;9.816;2023-02-28T15:36:31;3.53;;;0.90;;
545;SDS011;259;53.304;9.816;2023-02-28T15:39:02;3.80;;;1.13;;
545;SDS011;259;53.304;9.816;2023-02-28T15:41:44;1.77;;;0.80;;
545;SDS011;259;53.304;9.816;2023-02-28T15:44:17;1.47;;;0.70;;
545;SDS011;259;53.304;9.816;2023-02-28T15:49:23;2.23;;;0.80;;
545;SDS011;259;53.304;9.816;2023-02-28T15:51:50;1.77;;;0.73;;
545;SDS011;259;53.304;9.816;2023-02-28T15:54:29;1.60;;;0.90;;
545;SDS011;259;53.304;9.816;2023-02-28T15:57:10;1.80;;;0.77;;
545;SDS011;259;53.304;9.816;2023-02-28T15:59:50;0.70;;;0.70;;
545;SDS011;259;53.304;9.816;2023-02-28T16:02:21;0.80;;;0.63;;
545;SDS011;259;53.304;9.816;2023-02-28T16:04:57;0.77;;;0.70;;
545;SDS011;259;53.304;9.816;2023-02-28T16:07:32;2.40;;;1.07;;
545;SDS011;259;53.304;9.816;2023-02-28T16:10:00;1.63;;;1.10;;
545;SDS011;259;53.304;9.816;2023-02-28T16:12:29;1.77;;;0.70;;
545;SDS011;259;53.304;9.816;2023-02-28T16:14:59;2.60;;;0.80;;
545;SDS011;259;53.304;9.816;2023-02-28T16:17:31;1.10;;;0.70;;
545;SDS011;259;53.304;9.816;2023-02-28T16:20:00;0.70;;;0.50;;
545;SDS011;259;53.304;9.816;2023-02-28T16:22:26;1.00;;;0.87;;
545;SDS011;259;53.304;9.816;2023-02-28T16:24:52;1.10;;;0.90;;
545;SDS011;259;53.304;9.816;2023-02-28T16:27:31;1.00;;;0.70;;
545;SDS011;259;53.304;9.816;2023-02-28T16:30:01;1.73;;;0.73;;
545;SDS011;259;53.304;9.816;2023-02-28T16:32:29;0.90;;;0.60;;
545;SDS011;259;53.304;9.816;2023-02-28T16:34:57;1.67;;;0.70;;
545;SDS011;259;53.304;9.816;2023-02-28T16:37:22;1.97;;;0.80;;
545;SDS011;259;53.304;9.816;2023-02-28T16:39:48;0.70;;;0.67;;
545;SDS011;259;53.304;9.816;2023-02-28T16:42:18;1.43;;;0.70;;
545;SDS011;259;53.304;9.816;2023-02-28T16:44:48;0.70;;;0.50;;
545;SDS011;259;53.304;9.816;2023-02-28T16:47:14;0.83;;;0.60;;
545;SDS011;259;53.304;9.816;2023-02-28T16:49:40;1.37;;;1.27;;
545;SDS011;259;53.304;9.816;2023-02-28T16:52:08;0.70;;;0.60;;
545;SDS011;259;53.304;9.816;2023-02-28T16:54:35;0.67;;;0.53;;
545;SDS011;259;53.304;9.816;2023-02-28T16:57:00;0.60;;;0.57;;
545;SDS011;259;53.304;9.816;2023-02-28T16:59:27;1.30;;;0.60;;
545;SDS011;259;53.304;9.816;2023-02-28T17:01:54;0.83;;;0.83;;
545;SDS011;259;53.304;9.816;2023-02-28T17:04:22;0.77;;;0.70;;
545;SDS011;259;53.304;9.816;2023-02-28T17:06:51;0.80;;;0.67;;
545;SDS011;259;53.304;9.816;2023-02-28T17:09:18;0.70;;;0.60;;
545;SDS011;259;53.304;9.816;2023-02-28T17:11:46;0.73;;;0.50;;
545;SDS011;259;53.304;9.816;2023-02-28T17:14:13;1.03;;;0.60;;
545;SDS011;259;53.304;9.816;2023-02-28T17:16:40;1.03;;;0.60;;
545;SDS011;259;53.304;9.816;2023-02-28T17:19:09;0.73;;;0.40;;
545;SDS011;259;53.304;9.816;2023-02-28T17:21:38;1.00;;;0.70;;
545;SDS011;259;53.304;9.816;2023-02-28T17:24:06;0.80;;;0.70;;
545;SDS011;259;53.304;9.816;2023-02-28T17:26:33;0.70;;;0.50;;
545;SDS011;259;53.304;9.816;2023-02-28T17:28:59;0.90;;;0.50;;
545;SDS011;259;53.304;9.816;2023-02-28T17:31:25;1.60;;;1.03;;
545;SDS011;259;53.304;9.816;2023-02-28T17:33:52;0.60;;;0.60;;
545;SDS011;259;53.304;9.816;2023-02-28T17:36:23;0.60;;;0.40;;
545;SDS011;259;53.304;9.816;2023-02-28T17:38:51;2.83;;;0.70;;
545;SDS011;259;53.304;9.816;2023-02-28T17:41:20;3.33;;;0.70;;
545;SDS011;259;53.304;9.816;2023-02-28T17:43:46;0.90;;;0.73;;
545;SDS011;259;53.304;9.816;2023-02-28T17:46:16;0.60;;;0.43;;
545;SDS011;259;53.304;9.816;2023-02-28T17:48:50;0.90;;;0.87;;
545;SDS011;259;53.304;9.816;2023-02-28T17:51:18;0.80;;;0.63;;
545;SDS011;259;53.304;9.816;2023-02-28T17:53:45;1.00;;;0.90;;
545;SDS011;259;53.304;9.816;2023-02-28T17:56:15;1.37;;;1.27;;
545;SDS011;259;53.304;9.816;2023-02-28T17:58:48;1.17;;;1.17;;
545;SDS011;259;53.304;9.816;2023-02-28T18:01:15;1.00;;;0.90;;
545;SDS011;259;53.304;9.816;2023-02-28T18:03:41;1.17;;;1.10;;
545;SDS011;259;53.304;9.816;2023-02-28T18:06:09;0.97;;;0.97;;
545;SDS011;259;53.304;9.816;2023-02-28T18:08:42;1.50;;;1.40;;
545;SDS011;259;53.304;9.816;2023-02-28T18:11:08;1.10;;;1.03;;
545;SDS011;259;53.304;9.816;2023-02-28T18:13:42;1.50;;;1.40;;
545;SDS011;259;53.304;9.816;2023-02-28T18:16:13;1.73;;;1.63;;
545;SDS011;259;53.304;9.816;2023-02-28T18:18:40;1.47;;;1.37;;
545;SDS011;259;53.304;9.816;2023-02-28T18:21:06;1.50;;;1.40;;
545;SDS011;259;53.304;9.816;2023-02-28T18:23:35;1.40;;;1.30;;
545;SDS011;259;53.304;9.816;2023-02-28T18:26:01;1.70;;;1.60;;
545;SDS011;259;53.304;9.816;2023-02-28T18:28:31;1.90;;;1.80;;
545;SDS011;259;53.304;9.816;2023-02-28T18:31:04;1.50;;;1.40;;
545;SDS011;259;53.304;9.816;2023-02-28T18:33:31;1.37;;;1.27;;